Time;durP1;ratioP1;P1;durP2;ratioP2;P2;SDS_P1;SDS_P2;PMS_P1;PMS_P2;Temp;Humidity;BMP_temperature;BMP_pressure;BME280_temperature;BME280_humidity;BME280_pressure;Samples;Min_cycle;Max_cycle;Signal;HPM_P1;HPM_P2
2022/08/30 00:03:49;;;;;;;10.98;5.47;;;;;;;;;;8260609;28;20058;-87
2022/08/30 00:07:53;;;;;;;9.40;5.55;;;;;;;;;;8278125;28;20052;-96
2022/08/30 00:11:56;;;;;;;8.38;4.40;;;;;;;;;;8286623;28;20042;-91
2022/08/30 00:15:58;;;;;;;8.40;4.85;;;;;;;;;;8284227;28;20108;-88
2022/08/30 00:20:01;;;;;;;9.48;4.95;;;;;;;;;;8297568;28;20478;-87
2022/08/30 00:24:05;;;;;;;10.13;4.72;;;;;;;;;;8297577;28;20070;-86
2022/08/30 00:28:09;;;;;;;7.82;4.40;;;;;;;;;;8292407;28;20409;-88
2022/08/30 00:32:12;;;;;;;7.22;4.47;;;;;;;;;;8288885;28;20406;-91
2022/08/30 00:36:14;;;;;;;9.60;5.07;;;;;;;;;;8297666;28;20052;-93
2022/08/30 00:40:20;;;;;;;13.02;4.25;;;;;;;;;;8296053;28;20104;-87
2022/08/30 00:44:23;;;;;;;8.77;4.43;;;;;;;;;;8296171;28;20038;-89
2022/08/30 00:48:26;;;;;;;10.52;4.00;;;;;;;;;;8291799;28;20096;-92
2022/08/30 00:52:28;;;;;;;8.13;4.10;;;;;;;;;;8298061;28;20042;-88
2022/08/30 00:56:36;;;;;;;8.82;4.55;;;;;;;;;;8297214;28;20041;-93
2022/08/30 01:00:40;;;;;;;8.70;4.53;;;;;;;;;;8280255;28;20576;-88
2022/08/30 01:04:43;;;;;;;14.10;4.65;;;;;;;;;;8297340;28;20486;-89
2022/08/30 01:08:47;;;;;;;12.73;6.00;;;;;;;;;;8299139;28;20050;-89
2022/08/30 01:12:55;;;;;;;8.88;4.80;;;;;;;;;;8300832;28;20062;-88
2022/08/30 01:17:00;;;;;;;7.95;4.20;;;;;;;;;;8285298;28;20508;-88
2022/08/30 01:21:09;;;;;;;6.13;4.40;;;;;;;;;;8284042;28;20060;-88
2022/08/30 01:25:15;;;;;;;6.22;3.90;;;;;;;;;;8300768;28;20045;-88
2022/08/30 01:29:24;;;;;;;7.78;4.25;;;;;;;;;;8301656;28;20038;-90
2022/08/30 01:33:27;;;;;;;12.23;4.43;;;;;;;;;;8276641;28;20068;-89
2022/08/30 01:37:32;;;;;;;8.80;4.68;;;;;;;;;;8298323;28;20107;-89
2022/08/30 01:41:37;;;;;;;7.85;4.25;;;;;;;;;;8299693;28;20049;-89
2022/08/30 01:45:40;;;;;;;6.80;4.20;;;;;;;;;;8298864;28;20057;-88
2022/08/30 01:49:45;;;;;;;11.20;5.05;;;;;;;;;;8283143;28;20052;-89
2022/08/30 01:53:51;;;;;;;7.95;3.90;;;;;;;;;;8300291;28;20053;-89
2022/08/30 01:57:55;;;;;;;8.77;4.60;;;;;;;;;;8302242;28;20050;-89
2022/08/30 02:02:00;;;;;;;8.93;4.65;;;;;;;;;;8299869;28;20054;-88
2022/08/30 02:06:08;;;;;;;10.20;4.78;;;;;;;;;;8296939;28;20051;-90
2022/08/30 02:10:11;;;;;;;8.00;4.32;;;;;;;;;;8301607;28;20084;-89
2022/08/30 02:14:19;;;;;;;5.65;3.90;;;;;;;;;;8305862;28;20048;-89
2022/08/30 02:22:32;;;;;;;6.05;4.30;;;;;;;;;;8356923;23;20060;-91
2022/08/30 02:26:36;;;;;;;13.25;10.43;;;;;;;;;;8321575;28;20065;-90
2022/08/30 02:30:40;;;;;;;57.13;44.35;;;;;;;;;;8303262;28;20188;-93
2022/08/30 02:34:43;;;;;;;8.23;4.53;;;;;;;;;;8303110;28;20061;-89
2022/08/30 02:38:45;;;;;;;8.27;4.22;;;;;;;;;;8313019;28;20463;-91
2022/08/30 02:42:48;;;;;;;8.35;4.60;;;;;;;;;;8301041;28;20057;-90
2022/08/30 02:46:52;;;;;;;7.65;4.30;;;;;;;;;;8291969;28;20567;-90
2022/08/30 02:50:54;;;;;;;6.68;4.45;;;;;;;;;;8305885;28;20053;-90
2022/08/30 02:54:57;;;;;;;10.07;5.00;;;;;;;;;;8284740;28;20098;-89
2022/08/30 02:58:59;;;;;;;9.80;4.57;;;;;;;;;;8292437;28;20100;-90
2022/08/30 03:03:04;;;;;;;6.32;4.55;;;;;;;;;;8291767;28;20047;-95
2022/08/30 03:07:07;;;;;;;9.65;4.78;;;;;;;;;;8302940;28;20038;-94
2022/08/30 03:11:12;;;;;;;7.07;4.57;;;;;;;;;;8310464;28;20037;-94
2022/08/30 03:15:16;;;;;;;11.10;7.45;;;;;;;;;;8306265;28;20056;-92
2022/08/30 03:19:20;;;;;;;9.75;5.53;;;;;;;;;;8302165;28;20068;-93
2022/08/30 03:23:24;;;;;;;10.15;4.78;;;;;;;;;;8280642;28;20069;-94
2022/08/30 03:27:26;;;;;;;7.50;4.60;;;;;;;;;;8304349;28;20064;-93
2022/08/30 03:31:29;;;;;;;7.78;4.55;;;;;;;;;;8305884;28;20046;-94
2022/08/30 03:35:33;;;;;;;9.43;5.10;;;;;;;;;;8308590;28;20499;-92
2022/08/30 03:39:36;;;;;;;7.20;5.35;;;;;;;;;;8306135;28;20072;-92
2022/08/30 03:43:38;;;;;;;8.70;5.18;;;;;;;;;;8304962;28;20155;-93
2022/08/30 03:47:41;;;;;;;9.18;5.50;;;;;;;;;;8300995;28;20045;-93
2022/08/30 03:51:46;;;;;;;11.25;4.95;;;;;;;;;;8310872;28;20456;-93
2022/08/30 03:55:49;;;;;;;6.57;4.13;;;;;;;;;;8288175;28;20046;-93
2022/08/30 03:59:51;;;;;;;8.40;4.82;;;;;;;;;;8300135;28;20507;-93
2022/08/30 04:03:55;;;;;;;7.15;4.78;;;;;;;;;;8294166;28;20264;-93
2022/08/30 04:07:59;;;;;;;8.43;4.47;;;;;;;;;;8290344;28;20038;-94
2022/08/30 04:12:02;;;;;;;6.95;4.32;;;;;;;;;;8288137;28;20459;-93
2022/08/30 04:16:05;;;;;;;7.05;5.63;;;;;;;;;;8282421;28;20101;-93
2022/08/30 04:20:11;;;;;;;7.68;4.75;;;;;;;;;;8289052;28;20051;-93
2022/08/30 04:24:15;;;;;;;11.65;4.93;;;;;;;;;;8281330;28;20048;-93
2022/08/30 04:28:17;;;;;;;9.65;5.72;;;;;;;;;;8285202;28;20044;-93
2022/08/30 04:32:20;;;;;;;8.15;5.07;;;;;;;;;;8284098;28;20452;-93
2022/08/30 04:36:23;;;;;;;7.65;5.22;;;;;;;;;;8289113;28;20483;-93
2022/08/30 04:40:27;;;;;;;9.88;6.80;;;;;;;;;;8285030;28;20068;-92
2022/08/30 04:44:31;;;;;;;11.05;5.57;;;;;;;;;;8286262;28;20065;-93
2022/08/30 04:48:35;;;;;;;9.48;5.70;;;;;;;;;;8292717;28;20054;-94
2022/08/30 04:52:38;;;;;;;10.20;5.35;;;;;;;;;;8299138;28;20057;-93
2022/08/30 04:56:42;;;;;;;17.40;10.32;;;;;;;;;;8296684;28;20052;-93
2022/08/30 05:00:45;;;;;;;8.95;6.72;;;;;;;;;;8298758;28;20050;-93
2022/08/30 05:09:04;;;;;;;11.30;6.05;;;;;;;;;;8285460;28;20139;-93
2022/08/30 05:13:09;;;;;;;12.20;7.55;;;;;;;;;;8291851;28;20136;-93
2022/08/30 05:17:11;;;;;;;17.92;7.15;;;;;;;;;;8296431;28;20118;-93
2022/08/30 05:21:16;;;;;;;10.55;6.45;;;;;;;;;;8283991;28;20054;-93
2022/08/30 05:25:22;;;;;;;21.13;7.63;;;;;;;;;;8279188;28;20137;-93
2022/08/30 05:29:26;;;;;;;13.43;6.55;;;;;;;;;;8282510;28;20050;-93
2022/08/30 05:33:29;;;;;;;13.35;7.78;;;;;;;;;;8279837;28;20042;-93
2022/08/30 05:37:31;;;;;;;16.65;8.13;;;;;;;;;;8289705;28;20045;-92
2022/08/30 05:41:34;;;;;;;17.70;7.18;;;;;;;;;;8286616;28;20512;-94
2022/08/30 05:45:38;;;;;;;8.88;5.93;;;;;;;;;;8284833;28;20065;-93
2022/08/30 05:49:41;;;;;;;8.98;5.93;;;;;;;;;;8286884;28;20050;-92
2022/08/30 05:53:44;;;;;;;11.80;7.60;;;;;;;;;;8294674;28;20088;-94
2022/08/30 05:57:47;;;;;;;12.65;7.43;;;;;;;;;;8281840;28;20113;-93
2022/08/30 06:01:51;;;;;;;12.85;8.05;;;;;;;;;;8279999;28;20068;-93
2022/08/30 06:05:55;;;;;;;11.77;8.20;;;;;;;;;;8267934;28;20042;-93
2022/08/30 06:09:57;;;;;;;14.68;7.85;;;;;;;;;;8277906;28;20054;-93
2022/08/30 06:14:00;;;;;;;14.18;7.65;;;;;;;;;;8277187;28;20047;-92
2022/08/30 06:18:04;;;;;;;12.13;6.93;;;;;;;;;;8287439;28;20493;-92
2022/08/30 06:22:07;;;;;;;10.00;6.25;;;;;;;;;;8279573;28;20134;-93
2022/08/30 06:26:09;;;;;;;15.20;7.57;;;;;;;;;;8289666;28;20057;-93
2022/08/30 06:30:13;;;;;;;9.55;6.20;;;;;;;;;;8278355;28;20105;-92
2022/08/30 06:34:17;;;;;;;11.48;6.97;;;;;;;;;;8277600;28;20050;-93
2022/08/30 06:38:20;;;;;;;12.20;6.78;;;;;;;;;;8276694;28;20433;-94
2022/08/30 06:42:29;;;;;;;14.25;7.43;;;;;;;;;;8282046;28;20070;-93
2022/08/30 06:46:35;;;;;;;9.68;6.63;;;;;;;;;;8283654;28;20129;-93
2022/08/30 06:50:40;;;;;;;12.02;7.43;;;;;;;;;;8290769;28;20481;-93
2022/08/30 06:54:43;;;;;;;11.35;8.27;;;;;;;;;;8281351;28;20046;-92
2022/08/30 06:58:46;;;;;;;11.50;7.50;;;;;;;;;;8288238;28;20461;-92
2022/08/30 07:02:49;;;;;;;12.27;7.53;;;;;;;;;;8277238;28;20042;-92
2022/08/30 07:06:53;;;;;;;11.18;7.15;;;;;;;;;;8276284;28;20047;-93
2022/08/30 07:10:56;;;;;;;12.50;6.60;;;;;;;;;;8293927;28;20128;-92
2022/08/30 07:14:59;;;;;;;10.52;7.18;;;;;;;;;;8293153;28;20485;-93
2022/08/30 07:19:05;;;;;;;11.88;7.22;;;;;;;;;;8278484;28;20088;-92
2022/08/30 07:23:10;;;;;;;12.35;7.38;;;;;;;;;;8274968;28;20098;-92
2022/08/30 07:27:13;;;;;;;11.77;7.15;;;;;;;;;;8271791;28;20539;-92
2022/08/30 07:31:17;;;;;;;11.50;6.93;;;;;;;;;;8286201;28;20046;-92
2022/08/30 07:35:19;;;;;;;12.63;7.47;;;;;;;;;;8292811;28;20484;-92
2022/08/30 07:39:24;;;;;;;13.98;7.32;;;;;;;;;;8289170;28;20046;-94
2022/08/30 07:43:27;;;;;;;11.50;7.40;;;;;;;;;;8281409;28;20042;-93
2022/08/30 07:47:30;;;;;;;10.82;7.50;;;;;;;;;;8280309;28;20488;-92
2022/08/30 07:51:33;;;;;;;13.90;7.00;;;;;;;;;;8285277;28;20544;-93
2022/08/30 07:55:37;;;;;;;9.13;5.88;;;;;;;;;;8277115;28;20046;-93
2022/08/30 07:59:39;;;;;;;10.07;5.88;;;;;;;;;;8283666;28;20046;-93
2022/08/30 08:03:43;;;;;;;10.38;5.72;;;;;;;;;;8274021;28;20053;-93
2022/08/30 08:07:46;;;;;;;7.18;5.05;;;;;;;;;;8280143;28;20046;-93
2022/08/30 08:11:50;;;;;;;10.75;5.05;;;;;;;;;;8284603;28;20120;-93
2022/08/30 08:15:53;;;;;;;10.45;5.22;;;;;;;;;;8278658;28;20049;-93
2022/08/30 08:19:55;;;;;;;7.97;4.43;;;;;;;;;;8273202;28;20089;-92
2022/08/30 08:23:58;;;;;;;6.15;4.15;;;;;;;;;;8298633;28;20050;-91
2022/08/30 08:28:02;;;;;;;9.32;4.47;;;;;;;;;;8299396;28;20469;-91
2022/08/30 08:32:20;;;;;;;11.65;4.57;;;;;;;;;;8279498;28;20069;-92
2022/08/30 08:36:41;;;;;;;5.97;3.90;;;;;;;;;;8288415;28;20057;-89
2022/08/30 08:41:06;;;;;;;9.73;5.63;;;;;;;;;;8291443;28;20053;-90
2022/08/30 08:45:38;;;;;;;7.40;4.68;;;;;;;;;;8292573;28;20444;-95
2022/08/30 08:50:07;;;;;;;5.55;3.53;;;;;;;;;;8287865;28;20053;-92
2022/08/30 08:54:16;;;;;;;5.32;3.53;;;;;;;;;;8285719;28;20044;-91
2022/08/30 08:58:24;;;;;;;7.25;4.40;;;;;;;;;;8285524;28;20104;-92
2022/08/30 09:02:38;;;;;;;6.35;4.30;;;;;;;;;;8281643;28;20052;-91
2022/08/30 09:06:48;;;;;;;6.35;4.22;;;;;;;;;;8287449;28;20104;-91
2022/08/30 09:10:57;;;;;;;;;;;;;;;;;;8297550;28;20052;-91
2022/08/30 09:15:04;;;;;;;11.90;4.80;;;;;;;;;;8291386;28;19925;-91
2022/08/30 09:19:08;;;;;;;7.68;3.72;;;;;;;;;;8290333;28;20549;-91
2022/08/30 09:23:23;;;;;;;7.05;4.00;;;;;;;;;;8287045;28;20484;-90
2022/08/30 09:27:29;;;;;;;9.30;5.20;;;;;;;;;;8280802;28;20042;-91
2022/08/30 09:31:45;;;;;;;7.10;4.25;;;;;;;;;;8289323;28;20092;-89
2022/08/30 09:36:16;;;;;;;8.77;4.15;;;;;;;;;;8290482;28;20098;-90
2022/08/30 09:40:45;;;;;;;6.55;4.00;;;;;;;;;;8291162;28;20463;-90
2022/08/30 09:49:49;;;;;;;10.05;4.20;;;;;;;;;;8288131;28;20045;-89
2022/08/30 09:54:06;;;;;;;8.27;4.30;;;;;;;;;;8289961;28;20465;-90
2022/08/30 09:58:37;;;;;;;8.95;4.20;;;;;;;;;;8290065;28;20050;-90
2022/08/30 10:03:19;;;;;;;5.43;3.38;;;;;;;;;;8282437;28;20122;-90
2022/08/30 10:07:35;;;;;;;8.80;4.18;;;;;;;;;;8291914;28;20041;-92
2022/08/30 10:11:48;;;;;;;5.05;3.58;;;;;;;;;;8291106;28;20205;-91
2022/08/30 10:15:58;;;;;;;8.82;3.92;;;;;;;;;;8290960;28;20065;-90
2022/08/30 10:20:13;;;;;;;6.68;3.42;;;;;;;;;;8297562;28;20065;-91
2022/08/30 10:24:21;;;;;;;6.82;3.42;;;;;;;;;;8288141;28;20042;-91
2022/08/30 10:33:37;;;;;;;5.60;3.25;;;;;;;;;;8284592;28;20056;-90
2022/08/30 10:37:44;;;;;;;10.63;6.03;;;;;;;;;;8284377;28;20073;-91
2022/08/30 10:41:51;;;;;;;6.35;5.10;;;;;;;;;;8284879;28;20049;-91
2022/08/30 10:46:03;;;;;;;7.70;4.40;;;;;;;;;;8284656;28;20046;-91
2022/08/30 10:50:12;;;;;;;7.35;4.15;;;;;;;;;;8275798;28;20489;-92
2022/08/30 10:54:22;;;;;;;5.03;3.78;;;;;;;;;;8285251;28;20508;-91
2022/08/30 10:58:24;;;;;;;5.53;3.90;;;;;;;;;;8279445;28;20129;-90
2022/08/30 11:02:58;;;;;;;7.07;3.97;;;;;;;;;;8287705;28;20042;-90
2022/08/30 11:07:13;;;;;;;6.47;3.47;;;;;;;;;;8281627;28;20073;-89
2022/08/30 11:11:22;;;;;;;5.32;3.47;;;;;;;;;;8280511;28;20061;-89
2022/08/30 11:15:28;;;;;;;6.78;3.70;;;;;;;;;;8275842;28;20470;-90
2022/08/30 11:19:39;;;;;;;6.13;3.70;;;;;;;;;;8291536;28;20459;-89
2022/08/30 11:23:57;;;;;;;6.57;3.80;;;;;;;;;;8283694;28;20046;-89
2022/08/30 11:27:59;;;;;;;5.57;3.50;;;;;;;;;;8295229;28;20120;-89
2022/08/30 11:32:21;;;;;;;4.38;3.20;;;;;;;;;;8294727;28;20509;-88
2022/08/30 11:36:58;;;;;;;5.00;3.17;;;;;;;;;;8294708;28;20091;-88
2022/08/30 11:41:10;;;;;;;4.82;3.15;;;;;;;;;;8291052;28;20057;-88
2022/08/30 11:45:44;;;;;;;4.10;3.00;;;;;;;;;;8295493;28;20045;-89
2022/08/30 11:50:02;;;;;;;4.03;2.50;;;;;;;;;;8291605;28;20133;-88
2022/08/30 11:54:15;;;;;;;7.05;3.00;;;;;;;;;;8292732;28;20189;-88
2022/08/30 11:58:36;;;;;;;3.63;2.70;;;;;;;;;;8282315;28;20038;-88
2022/08/30 12:02:47;;;;;;;4.18;2.67;;;;;;;;;;8294455;28;20124;-88
2022/08/30 12:06:55;;;;;;;3.35;2.70;;;;;;;;;;8294804;28;20053;-89
2022/08/30 12:11:02;;;;;;;4.32;2.53;;;;;;;;;;8294178;28;20045;-93
2022/08/30 12:15:07;;;;;;;4.72;2.60;;;;;;;;;;8292739;28;20061;-90
2022/08/30 12:19:15;;;;;;;4.05;2.15;;;;;;;;;;8283985;28;20450;-90
2022/08/30 12:23:24;;;;;;;5.28;2.15;;;;;;;;;;8293789;28;20496;-90
2022/08/30 12:27:36;;;;;;;3.63;1.90;;;;;;;;;;8298218;28;20616;-90
2022/08/30 12:32:07;;;;;;;3.05;2.10;;;;;;;;;;8292731;28;20053;-90
2022/08/30 12:36:38;;;;;;;5.20;2.17;;;;;;;;;;8278340;28;20523;-94
2022/08/30 12:41:06;;;;;;;3.83;2.00;;;;;;;;;;8295139;28;20077;-95
2022/08/30 12:45:18;;;;;;;2.65;2.00;;;;;;;;;;8288264;28;20045;-90
2022/08/30 12:49:26;;;;;;;5.50;2.10;;;;;;;;;;8283103;28;20076;-95
2022/08/30 12:53:32;;;;;;;2.67;1.90;;;;;;;;;;8288331;28;20394;-91
2022/08/30 12:57:41;;;;;;;2.42;1.83;;;;;;;;;;8284004;28;20045;-92
2022/08/30 13:01:44;;;;;;;2.55;1.80;;;;;;;;;;8273579;28;20065;-91
2022/08/30 13:05:49;;;;;;;2.40;2.08;;;;;;;;;;8279490;28;20149;-91
2022/08/30 13:10:18;;;;;;;2.45;1.77;;;;;;;;;;8279347;28;20054;-92
2022/08/30 13:14:34;;;;;;;2.10;1.50;;;;;;;;;;8290452;28;20432;-91
2022/08/30 13:18:37;;;;;;;2.88;1.80;;;;;;;;;;8289024;28;20827;-91
2022/08/30 13:22:43;;;;;;;3.88;1.90;;;;;;;;;;8289884;28;20058;-90
2022/08/30 13:26:46;;;;;;;2.80;1.70;;;;;;;;;;8291109;28;20088;-92
2022/08/30 13:30:49;;;;;;;5.93;2.08;;;;;;;;;;8285418;28;20042;-92
2022/08/30 13:34:52;;;;;;;3.00;2.20;;;;;;;;;;8289712;28;20070;-92
2022/08/30 13:38:56;;;;;;;3.15;2.33;;;;;;;;;;8288418;28;20038;-93
2022/08/30 13:42:59;;;;;;;4.03;2.35;;;;;;;;;;8289931;28;20096;-91
2022/08/30 13:47:04;;;;;;;3.15;2.05;;;;;;;;;;8289415;28;20127;-91
2022/08/30 13:51:11;;;;;;;2.47;2.00;;;;;;;;;;8289171;28;20054;-91
2022/08/30 13:55:31;;;;;;;4.47;2.00;;;;;;;;;;8290625;28;20041;-91
2022/08/30 13:59:46;;;;;;;1.83;1.67;;;;;;;;;;8289837;28;20046;-92
2022/08/30 14:03:54;;;;;;;2.42;1.73;;;;;;;;;;8292016;28;20053;-92
2022/08/30 14:07:58;;;;;;;5.32;2.60;;;;;;;;;;8301385;28;20070;-92
2022/08/30 14:12:06;;;;;;;3.85;2.22;;;;;;;;;;8299083;28;20054;-89
2022/08/30 14:16:12;;;;;;;1.90;1.63;;;;;;;;;;8299753;28;20052;-90
2022/08/30 14:20:17;;;;;;;2.17;1.63;;;;;;;;;;8302056;28;20063;-90
2022/08/30 14:24:22;;;;;;;2.80;1.75;;;;;;;;;;8295277;28;20056;-92
2022/08/30 14:28:29;;;;;;;2.17;1.48;;;;;;;;;;8298628;28;20044;-89
2022/08/30 14:32:33;;;;;;;2.58;1.77;;;;;;;;;;8297587;28;20074;-89
2022/08/30 14:36:38;;;;;;;3.17;1.80;;;;;;;;;;8303668;28;20058;-90
2022/08/30 14:40:41;;;;;;;2.65;1.90;;;;;;;;;;8298491;28;20092;-89
2022/08/30 14:44:44;;;;;;;2.25;1.80;;;;;;;;;;8296179;28;20045;-89
2022/08/30 14:48:47;;;;;;;1.90;1.60;;;;;;;;;;8299656;28;20038;-89
2022/08/30 14:52:49;;;;;;;2.47;1.65;;;;;;;;;;8276680;28;20042;-91
2022/08/30 14:56:52;;;;;;;2.45;2.00;;;;;;;;;;8281863;28;20057;-90
2022/08/30 15:00:56;;;;;;;3.92;2.00;;;;;;;;;;8290286;28;20050;-91
2022/08/30 15:04:58;;;;;;;4.82;1.90;;;;;;;;;;8301175;28;20057;-89
2022/08/30 15:09:01;;;;;;;5.57;4.15;;;;;;;;;;8300856;28;20049;-90
2022/08/30 15:13:05;;;;;;;3.92;2.60;;;;;;;;;;8302593;28;20049;-90
2022/08/30 15:17:09;;;;;;;2.00;1.80;;;;;;;;;;8294639;28;20507;-93
2022/08/30 15:21:12;;;;;;;2.80;1.80;;;;;;;;;;8294598;28;20058;-90
2022/08/30 15:25:14;;;;;;;3.00;1.67;;;;;;;;;;8293332;28;20704;-90
2022/08/30 15:29:20;;;;;;;9.38;6.10;;;;;;;;;;8292956;28;20120;-90
2022/08/30 15:33:24;;;;;;;1.63;1.40;;;;;;;;;;8293585;28;20060;-90
2022/08/30 15:37:27;;;;;;;1.80;1.20;;;;;;;;;;8287797;28;20065;-92
2022/08/30 15:41:29;;;;;;;1.25;1.00;;;;;;;;;;8290947;28;20572;-90
2022/08/30 15:45:32;;;;;;;0.90;0.90;;;;;;;;;;8293750;28;20084;-90
2022/08/30 15:49:37;;;;;;;0.90;0.90;;;;;;;;;;8291713;28;20401;-90
2022/08/30 15:53:44;;;;;;;2.22;1.10;;;;;;;;;;8291724;28;20132;-92
2022/08/30 15:57:48;;;;;;;1.88;1.20;;;;;;;;;;8292577;28;20042;-91
2022/08/30 16:01:53;;;;;;;1.02;0.90;;;;;;;;;;8291128;28;20782;-92
2022/08/30 16:05:58;;;;;;;0.95;0.85;;;;;;;;;;8291407;28;20049;-90
2022/08/30 16:10:01;;;;;;;0.90;0.90;;;;;;;;;;8292338;28;20306;-90
2022/08/30 16:14:05;;;;;;;1.38;1.27;;;;;;;;;;8290645;28;20049;-90
2022/08/30 16:18:09;;;;;;;2.10;1.20;;;;;;;;;;8289768;28;20069;-89
2022/08/30 16:22:13;;;;;;;1.42;1.02;;;;;;;;;;8293067;28;20084;-91
2022/08/30 16:26:18;;;;;;;1.75;1.20;;;;;;;;;;8289284;28;20049;-90
2022/08/30 16:30:20;;;;;;;1.58;0.90;;;;;;;;;;8306046;28;20136;-89
2022/08/30 16:34:23;;;;;;;2.70;1.23;;;;;;;;;;8312996;28;20252;-89
2022/08/30 16:38:27;;;;;;;1.35;1.13;;;;;;;;;;8324713;28;20093;-91
2022/08/30 16:42:30;;;;;;;1.25;1.08;;;;;;;;;;8307597;28;20116;-90
2022/08/30 16:46:33;;;;;;;1.00;1.00;;;;;;;;;;8312418;28;20054;-90
2022/08/30 16:50:36;;;;;;;3.55;1.10;;;;;;;;;;8310836;28;20108;-89
2022/08/30 16:54:40;;;;;;;1.60;1.10;;;;;;;;;;8312923;28;20054;-90
2022/08/30 16:58:44;;;;;;;3.15;1.85;;;;;;;;;;8279290;28;20080;-91
2022/08/30 17:02:47;;;;;;;3.10;1.70;;;;;;;;;;8289055;28;20116;-92
2022/08/30 17:06:50;;;;;;;2.80;1.52;;;;;;;;;;8287707;28;20074;-90
2022/08/30 17:10:55;;;;;;;3.28;1.70;;;;;;;;;;8290449;28;20046;-90
2022/08/30 17:14:58;;;;;;;5.18;2.22;;;;;;;;;;8289828;28;20072;-91
2022/08/30 17:19:01;;;;;;;6.35;2.45;;;;;;;;;;8310764;28;20045;-90
2022/08/30 17:23:04;;;;;;;4.68;2.20;;;;;;;;;;8321556;28;20542;-89
2022/08/30 17:27:08;;;;;;;9.75;2.90;;;;;;;;;;8305817;28;20484;-90
2022/08/30 17:31:11;;;;;;;5.88;2.58;;;;;;;;;;8290057;28;20046;-90
2022/08/30 17:35:14;;;;;;;6.20;2.33;;;;;;;;;;8289006;28;20049;-89
2022/08/30 17:39:17;;;;;;;4.22;2.20;;;;;;;;;;8290430;28;20064;-91
2022/08/30 17:43:21;;;;;;;5.43;2.35;;;;;;;;;;8290009;28;20041;-91
2022/08/30 17:47:24;;;;;;;6.13;2.58;;;;;;;;;;8290680;28;20046;-90
2022/08/30 17:51:27;;;;;;;12.73;3.65;;;;;;;;;;8289966;28;20060;-91
2022/08/30 17:55:29;;;;;;;10.43;3.75;;;;;;;;;;8288571;28;20089;-90
2022/08/30 17:59:34;;;;;;;16.95;9.63;;;;;;;;;;8290576;28;20050;-90
2022/08/30 18:03:37;;;;;;;21.83;12.07;;;;;;;;;;8287433;28;20061;-90
2022/08/30 18:07:42;;;;;;;9.82;6.25;;;;;;;;;;8292460;28;20053;-94
2022/08/30 18:11:45;;;;;;;12.15;6.30;;;;;;;;;;8293330;28;20061;-93
2022/08/30 18:15:49;;;;;;;10.10;6.07;;;;;;;;;;8292930;28;20085;-90
2022/08/30 18:19:52;;;;;;;9.27;4.97;;;;;;;;;;8292774;28;20066;-90
2022/08/30 18:23:54;;;;;;;10.30;4.88;;;;;;;;;;8295479;28;20053;-91
2022/08/30 18:27:57;;;;;;;8.23;4.30;;;;;;;;;;8293933;28;20121;-91
2022/08/30 18:32:02;;;;;;;9.60;3.88;;;;;;;;;;8295835;28;20038;-90
2022/08/30 18:36:05;;;;;;;9.32;4.65;;;;;;;;;;8292813;28;20056;-90
2022/08/30 18:40:09;;;;;;;18.42;10.63;;;;;;;;;;8293994;28;20050;-91
2022/08/30 18:44:11;;;;;;;10.05;5.55;;;;;;;;;;8293552;28;20120;-91
2022/08/30 18:48:16;;;;;;;8.77;4.32;;;;;;;;;;8294133;28;20409;-91
2022/08/30 18:52:20;;;;;;;13.00;7.13;;;;;;;;;;8301015;28;20507;-90
2022/08/30 18:56:23;;;;;;;7.50;4.40;;;;;;;;;;8302357;28;20452;-90
2022/08/30 19:00:26;;;;;;;7.25;3.95;;;;;;;;;;8302185;28;20116;-90
2022/08/30 19:04:32;;;;;;;4.78;2.80;;;;;;;;;;8302449;28;20046;-90
2022/08/30 19:08:35;;;;;;;13.82;4.75;;;;;;;;;;8302251;28;20456;-90
2022/08/30 19:12:38;;;;;;;6.78;4.00;;;;;;;;;;8301794;28;20054;-90
2022/08/30 19:16:41;;;;;;;6.40;3.33;;;;;;;;;;8301775;28;20053;-90
2022/08/30 19:20:46;;;;;;;12.68;6.90;;;;;;;;;;8288540;28;20060;-90
2022/08/30 19:24:50;;;;;;;10.48;5.30;;;;;;;;;;8291486;28;20061;-89
2022/08/30 19:28:52;;;;;;;8.27;4.20;;;;;;;;;;8296282;28;20450;-90
2022/08/30 19:32:55;;;;;;;8.45;3.85;;;;;;;;;;8269879;28;20493;-90
2022/08/30 19:36:59;;;;;;;5.53;3.40;;;;;;;;;;8301144;28;20045;-90
2022/08/30 19:41:02;;;;;;;5.18;3.00;;;;;;;;;;8300894;28;20041;-90
2022/08/30 19:45:06;;;;;;;7.53;3.75;;;;;;;;;;8300828;28;20212;-90
2022/08/30 19:49:09;;;;;;;5.43;2.88;;;;;;;;;;8300745;28;20061;-90
2022/08/30 19:53:13;;;;;;;6.03;2.63;;;;;;;;;;8300519;28;20053;-89
2022/08/30 19:57:16;;;;;;;5.07;2.80;;;;;;;;;;8300583;28;20125;-90
2022/08/30 20:01:19;;;;;;;6.85;3.10;;;;;;;;;;8272724;28;20042;-90
2022/08/30 20:05:21;;;;;;;6.25;3.38;;;;;;;;;;8267793;28;20072;-90
2022/08/30 20:09:26;;;;;;;8.85;3.00;;;;;;;;;;8267737;28;20101;-90
2022/08/30 20:13:29;;;;;;;4.22;2.65;;;;;;;;;;8278274;28;20093;-90
2022/08/30 20:17:31;;;;;;;5.90;2.42;;;;;;;;;;8262260;28;20072;-90
2022/08/30 20:21:35;;;;;;;3.13;2.38;;;;;;;;;;8283657;28;20185;-90
2022/08/30 20:25:39;;;;;;;6.53;3.30;;;;;;;;;;8267396;28;20417;-90
2022/08/30 20:29:41;;;;;;;6.47;3.08;;;;;;;;;;8299082;28;20045;-89
2022/08/30 20:33:44;;;;;;;6.00;2.78;;;;;;;;;;8299280;28;20046;-90
2022/08/30 20:37:47;;;;;;;6.40;3.53;;;;;;;;;;8299203;28;20073;-89
2022/08/30 20:41:51;;;;;;;6.57;4.10;;;;;;;;;;8299109;28;20046;-90
2022/08/30 20:45:55;;;;;;;5.93;3.60;;;;;;;;;;8298948;28;20042;-90
2022/08/30 20:49:57;;;;;;;7.38;3.10;;;;;;;;;;8298922;28;20042;-90
2022/08/30 20:54:00;;;;;;;6.05;3.30;;;;;;;;;;8298667;28;20057;-90
2022/08/30 20:58:04;;;;;;;8.68;3.78;;;;;;;;;;8298607;28;20450;-89
2022/08/30 21:02:06;;;;;;;7.00;3.75;;;;;;;;;;8298436;28;20053;-90
2022/08/30 21:06:10;;;;;;;5.88;3.38;;;;;;;;;;8298413;28;20084;-90
2022/08/30 21:10:13;;;;;;;6.60;3.25;;;;;;;;;;8298299;28;20114;-90
2022/08/30 21:14:18;;;;;;;6.60;3.42;;;;;;;;;;8297419;28;20404;-90
2022/08/30 21:18:21;;;;;;;6.88;3.38;;;;;;;;;;8298161;28;20057;-90
2022/08/30 21:22:24;;;;;;;8.35;3.05;;;;;;;;;;8297809;28;20058;-89
2022/08/30 21:26:27;;;;;;;7.07;3.22;;;;;;;;;;8297841;28;20390;-89
2022/08/30 21:30:31;;;;;;;6.65;2.97;;;;;;;;;;8297616;28;20049;-90
2022/08/30 21:36:44;;;;;;;3.78;2.50;;;;;;;;;;8297622;28;20555;-90
2022/08/30 21:38:58;;;;;;;3.22;2.08;;;;;;;;;;8297544;28;20046;-90
2022/08/30 21:43:01;;;;;;;4.03;2.53;;;;;;;;;;8297334;28;20052;-90
2022/08/30 21:47:05;;;;;;;5.20;2.53;;;;;;;;;;8297294;28;20053;-89
2022/08/30 21:51:11;;;;;;;4.03;2.53;;;;;;;;;;8297196;28;20046;-90
2022/08/30 21:55:13;;;;;;;4.78;2.30;;;;;;;;;;8297219;28;20382;-91
2022/08/30 21:59:17;;;;;;;3.90;2.40;;;;;;;;;;8297196;28;20057;-90
2022/08/30 22:03:20;;;;;;;3.95;2.35;;;;;;;;;;8249755;28;20121;-90
2022/08/30 22:07:23;;;;;;;5.28;2.50;;;;;;;;;;8232362;28;20050;-90
2022/08/30 22:11:27;;;;;;;6.25;2.63;;;;;;;;;;8233117;28;20085;-89
2022/08/30 22:15:29;;;;;;;6.13;2.40;;;;;;;;;;8264303;28;20042;-90
2022/08/30 22:19:33;;;;;;;4.75;2.70;;;;;;;;;;8269092;28;20062;-89
2022/08/30 22:23:37;;;;;;;4.38;2.80;;;;;;;;;;8267819;28;20539;-89
2022/08/30 22:27:39;;;;;;;16.85;3.30;;;;;;;;;;8270727;28;20050;-90
2022/08/30 22:31:41;;;;;;;5.75;2.80;;;;;;;;;;8270640;28;20046;-90
2022/08/30 22:35:46;;;;;;;3.60;2.65;;;;;;;;;;8270488;28;20050;-90
2022/08/30 22:39:50;;;;;;;3.92;2.67;;;;;;;;;;8291120;28;20049;-90
2022/08/30 22:43:53;;;;;;;3.63;2.60;;;;;;;;;;8300903;28;20060;-90
2022/08/30 22:47:56;;;;;;;4.60;2.67;;;;;;;;;;8297658;28;20501;-90
2022/08/30 22:52:00;;;;;;;4.57;2.75;;;;;;;;;;8298738;28;20034;-91
2022/08/30 22:56:09;;;;;;;7.35;2.80;;;;;;;;;;8300707;28;20049;-90
2022/08/30 23:00:14;;;;;;;4.72;2.30;;;;;;;;;;8302067;28;20115;-89
2022/08/30 23:04:17;;;;;;;8.20;2.63;;;;;;;;;;8297386;28;20083;-90
2022/08/30 23:08:21;;;;;;;4.43;2.38;;;;;;;;;;8300073;28;20049;-90
2022/08/30 23:12:24;;;;;;;3.92;2.40;;;;;;;;;;8299303;28;20038;-92
2022/08/30 23:16:26;;;;;;;5.15;2.50;;;;;;;;;;8299337;28;20049;-90
2022/08/30 23:20:28;;;;;;;5.05;2.40;;;;;;;;;;8300129;28;20054;-90
